createdAt,value
2022-10-24T00:01:29.247Z,14.14
2022-10-24T00:03:57.879Z,14.01
2022-10-24T00:06:25.463Z,13.93
2022-10-24T00:08:53.188Z,13.98
2022-10-24T00:11:26.689Z,14.00
2022-10-24T00:13:56.479Z,14.03
2022-10-24T00:16:24.656Z,13.98
2022-10-24T00:18:52.730Z,13.98
2022-10-24T00:21:20.334Z,13.89
2022-10-24T00:23:48.240Z,13.87
2022-10-24T00:26:15.978Z,13.90
2022-10-24T00:28:43.737Z,13.78
2022-10-24T00:31:15.113Z,13.86
2022-10-24T00:33:43.544Z,13.75
2022-10-24T00:36:29.766Z,13.81
2022-10-24T00:38:57.426Z,13.74
2022-10-24T00:41:34.330Z,13.81
2022-10-24T00:44:26.123Z,13.73
2022-10-24T00:47:02.761Z,13.74
2022-10-24T00:49:57.125Z,13.78
2022-10-24T00:52:37.056Z,13.67
2022-10-24T00:55:05.422Z,13.73
2022-10-24T00:57:36.259Z,13.73
2022-10-24T01:00:18.918Z,13.56
2022-10-24T01:02:47.610Z,13.59
2022-10-24T01:05:16.227Z,13.45
2022-10-24T01:08:05.819Z,13.50
2022-10-24T01:10:45.975Z,13.48
2022-10-24T01:13:44.692Z,13.36
2022-10-24T01:16:19.335Z,13.36
2022-10-24T01:21:58.023Z,13.43
2022-10-24T01:24:48.598Z,13.55
2022-10-24T01:27:48.306Z,13.54
2022-10-24T01:30:16.842Z,13.46
2022-10-24T01:33:03.084Z,13.40
2022-10-24T01:35:41.592Z,13.54
2022-10-24T01:38:24.152Z,13.48
2022-10-24T01:41:13.903Z,13.42
2022-10-24T01:43:46.255Z,13.45
2022-10-24T01:46:18.522Z,13.46
2022-10-24T01:48:54.498Z,13.52
2022-10-24T01:51:26.971Z,13.43
2022-10-24T01:53:55.955Z,13.50
2022-10-24T01:56:26.826Z,13.35
2022-10-24T01:59:05.042Z,13.28
2022-10-24T02:01:35.780Z,13.29
2022-10-24T02:04:06.257Z,13.08
2022-10-24T02:06:39.995Z,13.18
2022-10-24T02:09:16.673Z,13.29
2022-10-24T02:11:46.047Z,13.20
2022-10-24T02:14:21.348Z,13.08
2022-10-24T02:16:49.981Z,13.09
2022-10-24T02:19:18.323Z,13.06
2022-10-24T02:22:14.866Z,13.25
2022-10-24T02:24:58.236Z,13.31
2022-10-24T02:27:39.276Z,13.27
2022-10-24T02:30:14.479Z,13.21
2022-10-24T02:32:43.895Z,13.10
2022-10-24T02:35:13.367Z,13.06
2022-10-24T02:37:44.415Z,13.10
2022-10-24T02:40:13.168Z,13.05
2022-10-24T02:42:43.212Z,12.90
2022-10-24T02:45:12.297Z,12.81
2022-10-24T02:47:41.055Z,12.76
2022-10-24T02:50:09.099Z,12.75
2022-10-24T02:52:38.555Z,12.78
2022-10-24T02:55:07.144Z,12.67
2022-10-24T02:57:35.080Z,12.66
2022-10-24T03:00:04.359Z,12.77
2022-10-24T03:02:32.352Z,12.72
2022-10-24T03:05:01.217Z,12.51
2022-10-24T03:09:58.904Z,12.53
2022-10-24T03:12:26.555Z,12.42
2022-10-24T03:14:54.283Z,12.53
2022-10-24T03:17:22.152Z,12.46
2022-10-24T03:19:49.866Z,12.25
2022-10-24T03:22:17.398Z,12.26
2022-10-24T03:24:55.220Z,12.30
2022-10-24T03:27:23.323Z,12.28
2022-10-24T03:29:51.420Z,12.34
2022-10-24T03:32:19.087Z,12.24
2022-10-24T03:34:46.724Z,12.29
2022-10-24T03:37:14.656Z,12.21
2022-10-24T03:39:42.388Z,12.15
2022-10-24T03:42:10.001Z,12.25
2022-10-24T03:44:37.906Z,12.16
2022-10-24T03:47:05.531Z,12.22
2022-10-24T03:49:33.410Z,12.13
2022-10-24T03:52:01.484Z,12.04
2022-10-24T03:54:29.093Z,11.97
2022-10-24T03:56:56.822Z,12.08
2022-10-24T03:59:24.733Z,12.05
2022-10-24T04:01:55.101Z,11.95
2022-10-24T04:04:23.194Z,11.95
2022-10-24T04:06:50.811Z,11.96
2022-10-24T04:09:18.567Z,11.92
2022-10-24T04:11:46.759Z,11.97
2022-10-24T04:14:14.613Z,11.93
2022-10-24T04:16:42.187Z,11.81
2022-10-24T04:19:10.327Z,11.93
2022-10-24T04:21:38.044Z,11.87
2022-10-24T04:24:05.921Z,11.87
2022-10-24T04:26:34.766Z,11.77
2022-10-24T04:29:02.401Z,11.85
2022-10-24T04:31:29.959Z,11.80
2022-10-24T04:33:57.876Z,11.75
2022-10-24T04:36:25.588Z,11.83
2022-10-24T04:38:53.305Z,11.80
2022-10-24T04:41:21.274Z,11.86
2022-10-24T04:43:48.893Z,11.85
2022-10-24T04:46:16.521Z,11.81
2022-10-24T04:48:44.381Z,11.95
2022-10-24T04:51:12.063Z,11.92
2022-10-24T04:53:39.746Z,11.85
2022-10-24T04:56:07.731Z,11.80
2022-10-24T04:58:35.632Z,11.86
2022-10-24T05:01:04.021Z,11.81
2022-10-24T05:03:31.898Z,11.75
2022-10-24T05:05:59.553Z,11.84
2022-10-24T05:08:27.253Z,11.75
2022-10-24T05:10:55.186Z,11.76
2022-10-24T05:13:22.876Z,11.74
2022-10-24T05:15:50.416Z,11.78
2022-10-24T05:18:18.241Z,11.77
2022-10-24T05:20:46.339Z,11.79
2022-10-24T05:23:13.915Z,11.67
2022-10-24T05:25:41.782Z,11.62
2022-10-24T05:28:09.438Z,11.75
2022-10-24T05:30:37.044Z,11.83
2022-10-24T05:33:04.980Z,11.81
2022-10-24T05:35:32.685Z,11.82
2022-10-24T05:38:00.367Z,12.00
2022-10-24T05:40:28.254Z,11.85
2022-10-24T05:42:56.040Z,11.92
2022-10-24T05:45:23.644Z,11.85
2022-10-24T05:47:51.664Z,11.95
2022-10-24T05:50:19.318Z,12.09
2022-10-24T05:52:47.321Z,12.11
2022-10-24T05:55:17.948Z,12.28
2022-10-24T05:57:46.544Z,12.19
2022-10-24T06:00:16.983Z,12.21
2022-10-24T06:05:15.143Z,12.13
2022-10-24T06:07:42.979Z,12.13
2022-10-24T06:10:12.366Z,12.17
2022-10-24T06:12:40.284Z,12.31
2022-10-24T06:15:08.380Z,12.18
2022-10-24T06:17:36.636Z,12.18
2022-10-24T06:20:04.999Z,12.17
2022-10-24T06:22:32.971Z,12.18
2022-10-24T06:25:00.926Z,12.27
2022-10-24T06:27:28.505Z,12.20
2022-10-24T06:29:56.243Z,12.23
2022-10-24T06:32:24.168Z,12.19
2022-10-24T06:34:51.791Z,12.24
2022-10-24T06:37:19.377Z,12.23
2022-10-24T06:39:47.332Z,12.43
2022-10-24T06:42:14.995Z,12.34
2022-10-24T06:44:42.676Z,12.20
2022-10-24T06:47:10.651Z,12.24
2022-10-24T06:49:38.230Z,12.15
2022-10-24T06:52:05.866Z,12.45
2022-10-24T06:54:34.103Z,12.48
2022-10-24T06:57:01.691Z,12.42
2022-10-24T06:59:29.324Z,12.41
2022-10-24T07:02:01.600Z,12.33
2022-10-24T07:04:32.537Z,12.35
2022-10-24T07:07:00.350Z,12.38
2022-10-24T07:09:28.163Z,12.22
2022-10-24T07:11:55.907Z,12.29
2022-10-24T07:14:23.796Z,12.38
2022-10-24T07:16:52.161Z,12.31
2022-10-24T07:19:19.744Z,12.43
2022-10-24T07:21:47.678Z,12.39
2022-10-24T07:24:15.335Z,12.43
2022-10-24T07:26:42.875Z,12.36
2022-10-24T07:29:10.924Z,12.42
2022-10-24T07:31:38.890Z,12.41
2022-10-24T07:34:08.533Z,12.48
2022-10-24T07:36:40.197Z,12.41
2022-10-24T07:39:12.875Z,12.53
2022-10-24T07:41:41.877Z,12.59
2022-10-24T07:44:09.873Z,12.59
2022-10-24T07:46:37.968Z,12.60
2022-10-24T07:49:08.009Z,12.70
2022-10-24T07:51:35.773Z,12.81
2022-10-24T07:54:03.456Z,12.69
2022-10-24T07:56:31.350Z,12.77
2022-10-24T07:58:59.007Z,12.81
2022-10-24T08:01:28.112Z,12.80
2022-10-24T08:03:56.695Z,12.86
2022-10-24T08:06:33.495Z,12.80
2022-10-24T08:09:01.424Z,12.89
2022-10-24T08:11:29.372Z,13.04
2022-10-24T08:13:56.968Z,13.10
2022-10-24T08:16:25.503Z,12.92
2022-10-24T08:18:55.747Z,12.96
2022-10-24T08:21:24.084Z,13.16
2022-10-24T08:23:54.094Z,13.10
2022-10-24T08:26:24.147Z,13.15
2022-10-24T08:28:52.338Z,13.05
2022-10-24T08:31:21.808Z,13.18
2022-10-24T08:33:52.477Z,13.15
2022-10-24T08:36:24.773Z,13.38
2022-10-24T08:38:52.435Z,13.25
2022-10-24T08:41:32.982Z,13.38
2022-10-24T08:44:02.232Z,13.39
2022-10-24T08:46:37.528Z,13.41
2022-10-24T08:49:11.175Z,13.39
2022-10-24T08:51:43.765Z,13.59
2022-10-24T08:54:14.492Z,13.61
2022-10-24T08:56:42.599Z,13.70
2022-10-24T08:59:12.659Z,13.74
2022-10-24T09:02:00.641Z,13.73
2022-10-24T09:04:38.659Z,13.66
2022-10-24T09:07:07.516Z,13.76
2022-10-24T09:09:41.064Z,13.87
2022-10-24T09:12:12.344Z,13.99
2022-10-24T09:14:45.490Z,13.98
2022-10-24T09:17:20.880Z,13.90
2022-10-24T09:19:57.380Z,13.94
2022-10-24T09:22:27.688Z,14.02
2022-10-24T09:25:07.922Z,13.96
2022-10-24T09:27:38.169Z,14.06
2022-10-24T09:30:11.905Z,14.18
2022-10-24T09:32:41.163Z,14.39
2022-10-24T09:35:22.555Z,14.53
2022-10-24T09:37:58.695Z,14.35
2022-10-24T09:40:30.231Z,14.55
2022-10-24T09:43:18.069Z,14.53
2022-10-24T09:45:51.248Z,14.36
2022-10-24T09:48:29.232Z,14.42
2022-10-24T09:50:59.633Z,14.47
2022-10-24T09:53:35.709Z,14.57
2022-10-24T09:56:09.810Z,14.61
2022-10-24T09:58:37.572Z,14.80
2022-10-24T10:01:10.454Z,14.90
2022-10-24T10:03:38.457Z,14.74
2022-10-24T10:06:19.812Z,14.55
2022-10-24T10:08:53.621Z,14.97
2022-10-24T10:11:35.327Z,14.98
2022-10-24T10:14:19.928Z,15.15
2022-10-24T10:17:01.970Z,15.13
2022-10-24T10:19:33.016Z,15.19
2022-10-24T10:22:01.859Z,15.02
2022-10-24T10:24:35.117Z,15.17
2022-10-24T10:27:25.522Z,15.25
2022-10-24T10:30:11.476Z,15.12
2022-10-24T10:33:10.697Z,15.04
2022-10-24T10:35:54.016Z,15.03
2022-10-24T10:38:51.150Z,15.05
2022-10-24T10:41:49.661Z,15.14
2022-10-24T10:44:20.550Z,15.25
2022-10-24T10:47:30.543Z,15.25
2022-10-24T10:49:58.639Z,15.29
2022-10-24T10:52:39.637Z,15.26
2022-10-24T10:55:43.027Z,15.34
2022-10-24T10:58:25.878Z,15.36
2022-10-24T11:01:11.691Z,15.18
2022-10-24T11:04:01.369Z,15.22
2022-10-24T11:06:47.233Z,15.20
2022-10-24T11:09:14.835Z,15.25
2022-10-24T11:12:08.293Z,15.26
2022-10-24T11:14:41.248Z,15.13
2022-10-24T11:17:40.456Z,15.18
2022-10-24T11:20:24.958Z,15.26
2022-10-24T11:23:02.396Z,15.25
2022-10-24T11:25:57.422Z,15.18
2022-10-24T11:28:32.610Z,15.19
2022-10-24T11:31:06.252Z,15.15
2022-10-24T11:33:44.542Z,14.99
2022-10-24T11:36:30.647Z,15.03
2022-10-24T11:39:03.479Z,15.23
2022-10-24T11:41:35.828Z,15.20
2022-10-24T11:44:30.521Z,15.21
2022-10-24T11:47:25.805Z,15.23
2022-10-24T11:50:03.999Z,15.31
2022-10-24T11:52:35.678Z,15.38
2022-10-24T11:55:14.790Z,15.38
2022-10-24T11:57:44.782Z,15.33
2022-10-24T12:00:35.884Z,15.35
2022-10-24T12:03:20.759Z,15.29
2022-10-24T12:06:20.269Z,15.35
2022-10-24T12:08:55.660Z,15.64
2022-10-24T12:12:00.876Z,15.60
2022-10-24T12:14:53.787Z,15.61
2022-10-24T12:17:30.188Z,15.50
2022-10-24T12:20:00.199Z,15.12
2022-10-24T12:22:35.205Z,15.18
2022-10-24T12:25:17.362Z,15.31
2022-10-24T12:27:45.262Z,15.04
2022-10-24T12:30:13.018Z,15.33
2022-10-24T12:32:48.662Z,15.28
2022-10-24T12:35:31.028Z,15.16
2022-10-24T12:38:01.388Z,15.29
2022-10-24T12:40:57.107Z,15.05
2022-10-24T12:43:27.313Z,14.94
2022-10-24T12:45:56.314Z,15.37
2022-10-24T12:48:29.147Z,15.54
2022-10-24T12:50:59.076Z,15.30
2022-10-24T12:53:30.803Z,15.33
2022-10-24T12:55:58.521Z,15.24
2022-10-24T12:58:30.818Z,15.03
2022-10-24T13:01:30.641Z,15.10
2022-10-24T13:04:24.402Z,15.24
2022-10-24T13:07:16.772Z,15.34
2022-10-24T13:10:03.167Z,15.11
2022-10-24T13:12:53.221Z,15.19
2022-10-24T13:15:38.688Z,15.08
2022-10-24T13:18:15.532Z,15.03
2022-10-24T13:20:45.037Z,15.04
2022-10-24T13:23:20.437Z,15.01
2022-10-24T13:25:49.873Z,14.94
2022-10-24T13:28:20.734Z,14.83
2022-10-24T13:30:50.449Z,14.98
2022-10-24T13:33:30.609Z,14.73
2022-10-24T13:36:10.630Z,14.81
2022-10-24T13:39:01.164Z,14.81
2022-10-24T13:41:38.044Z,15.11
2022-10-24T13:44:12.158Z,15.33
2022-10-24T13:46:58.366Z,15.27
2022-10-24T13:49:31.793Z,15.11
2022-10-24T13:52:17.419Z,15.24
2022-10-24T13:54:48.343Z,15.36
2022-10-24T13:57:33.684Z,15.62
2022-10-24T14:00:09.084Z,15.72
2022-10-24T14:02:40.366Z,15.41
2022-10-24T14:05:17.300Z,15.35
2022-10-24T14:07:45.348Z,15.17
2022-10-24T14:10:14.777Z,15.28
2022-10-24T14:12:43.238Z,15.40
2022-10-24T14:15:20.244Z,15.13
2022-10-24T14:18:03.278Z,15.29
2022-10-24T14:20:33.579Z,15.40
2022-10-24T14:23:28.151Z,15.16
2022-10-24T14:26:05.553Z,15.03
2022-10-24T14:28:44.156Z,15.11
2022-10-24T14:31:29.899Z,15.15
2022-10-24T14:33:58.211Z,15.33
2022-10-24T14:36:30.688Z,15.36
2022-10-24T14:38:59.797Z,15.31
2022-10-24T14:41:30.297Z,15.32
2022-10-24T14:43:59.125Z,15.51
2022-10-24T14:46:42.702Z,15.36
2022-10-24T14:49:30.285Z,15.17
2022-10-24T14:52:00.983Z,15.26
2022-10-24T14:54:33.019Z,15.21
2022-10-24T14:57:03.005Z,15.26
2022-10-24T14:59:36.489Z,15.26
2022-10-24T15:02:31.601Z,15.01
2022-10-24T15:05:34.869Z,15.26
2022-10-24T15:08:21.782Z,15.20
2022-10-24T15:11:13.085Z,15.21
2022-10-24T15:13:48.196Z,15.20
2022-10-24T15:16:27.923Z,15.20
2022-10-24T15:18:57.236Z,15.14
2022-10-24T15:21:35.938Z,15.14
2022-10-24T15:24:04.371Z,15.20
2022-10-24T15:26:40.577Z,15.14
2022-10-24T15:32:39.145Z,15.22
2022-10-24T15:35:18.008Z,15.15
2022-10-24T15:37:58.885Z,15.09
2022-10-24T15:40:31.311Z,15.10
2022-10-24T15:42:59.150Z,15.04
2022-10-24T15:45:27.552Z,15.02
2022-10-24T15:47:55.195Z,14.96
2022-10-24T15:50:24.262Z,14.97
2022-10-24T15:52:55.505Z,14.84
2022-10-24T15:55:25.667Z,14.89
2022-10-24T15:57:53.858Z,14.92
2022-10-24T16:00:22.968Z,14.95
2022-10-24T16:02:53.477Z,14.99
2022-10-24T16:05:42.545Z,14.98
2022-10-24T16:08:15.775Z,14.95
2022-10-24T16:10:43.570Z,14.94
2022-10-24T16:13:15.445Z,14.86
2022-10-24T16:15:44.193Z,14.68
2022-10-24T16:18:12.419Z,14.77
2022-10-24T16:20:40.483Z,14.83
2022-10-24T16:23:14.155Z,14.76
2022-10-24T16:25:42.604Z,14.80
2022-10-24T16:28:13.427Z,14.86
2022-10-24T16:30:41.242Z,14.95
2022-10-24T16:33:09.673Z,14.89
2022-10-24T16:35:38.848Z,14.65
2022-10-24T16:38:08.176Z,14.81
2022-10-24T16:43:16.558Z,14.86
2022-10-24T16:45:45.236Z,14.80
2022-10-24T16:48:13.371Z,14.83
2022-10-24T16:50:42.806Z,14.93
2022-10-24T16:53:11.277Z,14.82
2022-10-24T16:55:39.105Z,14.70
2022-10-24T16:58:06.976Z,14.72
2022-10-24T17:00:35.084Z,14.67
2022-10-24T17:03:02.795Z,14.71
2022-10-24T17:05:30.433Z,14.64
2022-10-24T17:07:58.468Z,14.66
2022-10-24T17:10:26.364Z,14.66
2022-10-24T17:12:54.293Z,14.61
2022-10-24T17:15:22.951Z,14.63
2022-10-24T17:17:50.830Z,14.48
2022-10-24T17:20:18.840Z,14.59
2022-10-24T17:22:47.303Z,14.52
2022-10-24T17:25:24.602Z,14.50
2022-10-24T17:27:54.170Z,14.48
2022-10-24T17:30:25.061Z,14.52
2022-10-24T17:32:52.954Z,14.49
2022-10-24T17:35:22.248Z,14.41
2022-10-24T17:38:16.552Z,14.34
2022-10-24T17:40:50.051Z,14.35
2022-10-24T17:43:20.633Z,14.50
2022-10-24T17:45:49.287Z,14.24
2022-10-24T17:48:17.928Z,14.07
2022-10-24T17:50:45.726Z,13.97
2022-10-24T17:53:18.537Z,13.85
2022-10-24T17:55:48.036Z,13.89
2022-10-24T17:58:16.383Z,13.82
2022-10-24T18:00:44.726Z,13.66
2022-10-24T18:03:13.324Z,13.64
2022-10-24T18:05:41.148Z,13.58
2022-10-24T18:08:10.876Z,13.48
2022-10-24T18:10:39.484Z,13.53
2022-10-24T18:13:07.789Z,13.41
2022-10-24T18:15:37.257Z,13.56
2022-10-24T18:18:05.609Z,13.36
2022-10-24T18:20:33.592Z,13.26
2022-10-24T18:23:01.985Z,13.11
2022-10-24T18:25:30.170Z,13.15
2022-10-24T18:27:58.272Z,13.12
2022-10-24T18:30:26.588Z,13.16
2022-10-24T18:32:56.744Z,13.01
2022-10-24T18:35:24.558Z,12.89
2022-10-24T18:40:28.259Z,12.74
2022-10-24T18:43:02.721Z,12.74
2022-10-24T18:45:31.607Z,12.74
2022-10-24T18:47:59.934Z,12.81
2022-10-24T18:50:27.963Z,13.00
2022-10-24T18:53:03.524Z,12.94
2022-10-24T18:55:33.487Z,12.95
2022-10-24T18:58:02.002Z,12.90
2022-10-24T19:00:34.125Z,12.89
2022-10-24T19:03:33.863Z,12.77
2022-10-24T19:06:17.534Z,12.73
2022-10-24T19:08:45.947Z,12.64
2022-10-24T19:11:13.737Z,12.46
2022-10-24T19:13:41.967Z,12.30
2022-10-24T19:16:22.192Z,12.37
2022-10-24T19:18:54.689Z,12.45
2022-10-24T19:21:22.938Z,12.48
2022-10-24T19:23:51.048Z,12.39
2022-10-24T19:26:19.781Z,12.55
2022-10-24T19:28:48.176Z,12.53
2022-10-24T19:31:16.054Z,12.66
2022-10-24T19:33:43.883Z,12.56
2022-10-24T19:36:14.459Z,12.51
2022-10-24T19:38:46.170Z,12.54
2022-10-24T19:41:14.434Z,12.73
2022-10-24T19:43:42.522Z,12.69
2022-10-24T19:46:25.976Z,12.70
2022-10-24T19:48:54.742Z,12.87
2022-10-24T19:51:23.211Z,12.80
2022-10-24T19:53:51.805Z,12.71
2022-10-24T19:56:24.085Z,12.58
2022-10-24T19:58:54.666Z,12.50
2022-10-24T20:01:26.390Z,12.55
2022-10-24T20:03:54.970Z,12.60
2022-10-24T20:06:24.492Z,12.54
2022-10-24T20:08:52.374Z,12.59
2022-10-24T20:11:20.883Z,12.53
2022-10-24T20:13:49.383Z,12.41
2022-10-24T20:16:17.355Z,12.33
2022-10-24T20:18:47.599Z,12.23
2022-10-24T20:21:17.226Z,12.23
2022-10-24T20:23:49.107Z,12.27
2022-10-24T20:26:25.646Z,12.26
2022-10-24T20:28:55.433Z,12.16
2022-10-24T20:31:29.224Z,12.21
2022-10-24T20:34:02.202Z,12.30
2022-10-24T20:36:33.113Z,12.37
2022-10-24T20:39:01.258Z,12.42
2022-10-24T20:41:29.483Z,12.35
2022-10-24T20:43:57.357Z,12.48
2022-10-24T20:46:25.271Z,12.54
2022-10-24T20:48:52.997Z,12.53
2022-10-24T20:51:21.617Z,12.61
2022-10-24T20:53:49.735Z,12.57
2022-10-24T20:56:22.492Z,12.57
2022-10-24T20:58:51.318Z,12.63
2022-10-24T21:01:29.315Z,12.66
2022-10-24T21:03:58.164Z,12.69
2022-10-24T21:06:27.028Z,12.80
2022-10-24T21:08:57.421Z,12.79
2022-10-24T21:11:27.369Z,12.78
2022-10-24T21:14:00.113Z,12.76
2022-10-24T21:16:29.030Z,12.77
2022-10-24T21:18:57.740Z,12.73
2022-10-24T21:21:25.715Z,12.73
2022-10-24T21:24:02.427Z,12.81
2022-10-24T21:26:36.885Z,12.94
2022-10-24T21:29:14.912Z,12.94
2022-10-24T21:31:52.516Z,12.97
2022-10-24T21:34:20.397Z,13.01
2022-10-24T21:36:48.354Z,13.00
2022-10-24T21:39:16.822Z,13.04
2022-10-24T21:41:44.840Z,12.99
2022-10-24T21:44:12.780Z,13.04
2022-10-24T21:46:40.381Z,13.08
2022-10-24T21:49:08.900Z,13.10
2022-10-24T21:51:37.186Z,13.13
2022-10-24T21:54:15.298Z,13.13
2022-10-24T21:56:43.172Z,13.10
2022-10-24T21:59:12.669Z,13.12
2022-10-24T22:01:41.580Z,13.07
2022-10-24T22:04:10.533Z,13.16
2022-10-24T22:06:38.151Z,13.15
2022-10-24T22:09:07.782Z,13.21
2022-10-24T22:11:36.253Z,13.28
2022-10-24T22:14:04.973Z,13.16
2022-10-24T22:16:33.164Z,13.20
2022-10-24T22:19:03.339Z,13.22
2022-10-24T22:21:45.879Z,13.16
2022-10-24T22:24:21.416Z,13.18
2022-10-24T22:26:49.791Z,13.34
2022-10-24T22:29:20.817Z,13.26
2022-10-24T22:31:49.880Z,13.30
2022-10-24T22:34:23.516Z,13.28
2022-10-24T22:37:00.290Z,13.36
2022-10-24T22:39:28.574Z,13.33
2022-10-24T22:41:56.613Z,13.27
2022-10-24T22:44:24.588Z,13.41
2022-10-24T22:47:28.183Z,13.42
2022-10-24T22:50:29.562Z,13.39
2022-10-24T22:52:57.761Z,13.47
2022-10-24T22:55:30.711Z,13.40
2022-10-24T22:57:58.954Z,13.37
2022-10-24T23:00:26.667Z,13.37
2022-10-24T23:03:22.515Z,13.35
2022-10-24T23:06:00.758Z,13.46
2022-10-24T23:08:46.551Z,13.36
2022-10-24T23:11:14.672Z,13.23
2022-10-24T23:13:42.870Z,13.24
2022-10-24T23:16:32.041Z,13.16
2022-10-24T23:19:00.103Z,13.23
2022-10-24T23:21:35.452Z,13.24
2022-10-24T23:24:03.932Z,13.26
2022-10-24T23:26:31.449Z,13.22
2022-10-24T23:29:29.811Z,13.11
2022-10-24T23:31:58.555Z,13.19
2022-10-24T23:34:26.815Z,13.14
2022-10-24T23:37:00.368Z,13.05
2022-10-24T23:39:31.976Z,13.04
2022-10-24T23:42:00.715Z,13.01
2022-10-24T23:44:28.902Z,13.14
2022-10-24T23:47:23.226Z,13.12
2022-10-24T23:49:57.052Z,12.98
2022-10-24T23:53:02.419Z,13.07
2022-10-24T23:55:30.706Z,13.07
2022-10-24T23:57:58.557Z,13.17
